Time;durP1;ratioP1;P1;durP2;ratioP2;P2;SDS_P1;SDS_P2;PMS_P1;PMS_P2;Temp;Humidity;BMP_temperature;BMP_pressure;BME280_temperature;BME280_humidity;BME280_pressure;Samples;Min_cycle;Max_cycle;Signal;HPM_P1;HPM_P2
2022/04/19 00:03:18;;;;;;;5.65;3.65;;;;;;;5.40;61.01;100173.03;3510376;79;21458;-79
2022/04/19 00:08:12;;;;;;;5.87;3.50;;;;;;;5.48;61.27;100172.84;3531206;79;21062;-80
2022/04/19 00:13:05;;;;;;;5.47;3.90;;;;;;;5.46;61.36;100179.25;3522525;77;21145;-81
2022/04/19 00:17:58;;;;;;;7.03;4.05;;;;;;;5.41;61.64;100180.81;3510112;79;21512;-81
2022/04/19 00:22:49;;;;;;;4.45;3.62;;;;;;;5.40;62.32;100175.61;3399833;82;20959;-80
2022/04/19 00:27:40;;;;;;;6.95;3.70;;;;;;;5.40;62.55;100173.03;3425514;80;21662;-81
2022/04/19 00:32:31;;;;;;;4.80;3.22;;;;;;;5.35;62.79;100168.63;3402135;81;21469;-81
2022/04/19 00:37:23;;;;;;;4.85;3.27;;;;;;;5.37;63.02;100170.38;3419231;82;21825;-81
2022/04/19 00:42:16;;;;;;;4.08;3.00;;;;;;;5.38;62.80;100157.52;3453810;82;20978;-81
2022/04/19 00:47:10;;;;;;;5.70;3.80;;;;;;;5.44;62.55;100160.70;3431491;82;21098;-81
2022/04/19 00:52:03;;;;;;;5.70;3.58;;;;;;;5.44;62.79;100156.84;3453830;82;20940;-81
2022/04/19 00:56:55;;;;;;;5.33;3.52;;;;;;;5.43;62.95;100148.63;3450791;81;20927;-80
2022/04/19 01:01:46;;;;;;;6.40;3.40;;;;;;;5.35;62.95;100148.00;3470345;81;21201;-80
2022/04/19 01:06:38;;;;;;;3.77;3.20;;;;;;;5.25;63.00;100139.95;3453568;81;20920;-80
2022/04/19 01:16:43;;;;;;;4.90;3.27;;;;;;;5.17;63.23;100138.45;3416640;82;20959;-80
2022/04/19 01:21:48;;;;;;;4.97;3.52;;;;;;;5.07;63.26;100136.00;3430584;82;20986;-80
2022/04/19 01:26:41;;;;;;;4.10;3.47;;;;;;;5.05;63.46;100134.22;3464979;82;21113;-80
2022/04/19 01:31:33;;;;;;;4.35;2.85;;;;;;;5.02;63.58;100126.39;3392946;81;20912;-80
2022/04/19 01:36:24;;;;;;;4.42;2.90;;;;;;;4.96;63.71;100125.37;3454639;82;21590;-80
2022/04/19 01:41:16;;;;;;;4.22;2.60;;;;;;;4.90;63.95;100119.16;3427819;82;21056;-80
2022/04/19 01:46:09;;;;;;;4.28;3.02;;;;;;;4.83;64.06;100123.27;3434361;80;20951;-80
2022/04/19 01:51:02;;;;;;;3.65;2.75;;;;;;;4.82;64.40;100120.22;3426797;82;21229;-80
2022/04/19 01:55:53;;;;;;;4.15;3.40;;;;;;;4.78;64.38;100117.09;3452726;81;20919;-80
2022/04/19 02:00:46;;;;;;;5.22;3.67;;;;;;;4.82;64.68;100117.64;3398495;82;21455;-81
2022/04/19 02:05:39;;;;;;;3.75;3.15;;;;;;;4.85;64.74;100121.61;3382861;82;20961;-81
2022/04/19 02:10:30;;;;;;;3.75;3.33;;;;;;;4.81;64.64;100121.06;3443190;81;21402;-81
2022/04/19 02:15:23;;;;;;;4.17;3.62;;;;;;;4.66;64.53;100121.44;3449147;80;21646;-81
2022/04/19 02:20:18;;;;;;;4.70;3.72;;;;;;;4.50;64.33;100119.21;3455054;82;21145;-81
2022/04/19 02:25:13;;;;;;;4.72;3.95;;;;;;;4.25;64.51;100121.41;3454657;80;20940;-81
2022/04/19 02:30:07;;;;;;;4.70;3.72;;;;;;;4.07;64.75;100119.09;3390337;82;21010;-80
2022/04/19 02:34:59;;;;;;;4.78;3.62;;;;;;;3.95;64.67;100122.12;3407079;81;20951;-81
2022/04/19 02:39:50;;;;;;;4.15;3.75;;;;;;;3.76;64.72;100124.06;3452283;80;21033;-81
2022/04/19 02:44:42;;;;;;;4.45;3.50;;;;;;;3.68;64.74;100129.76;3451384;80;20919;-81
2022/04/19 02:49:36;;;;;;;3.15;2.75;;;;;;;3.47;64.67;100129.86;3428287;81;20955;-81
2022/04/19 02:54:28;;;;;;;3.98;3.33;;;;;;;3.29;65.01;100134.81;3460488;81;21449;-81
2022/04/19 02:59:19;;;;;;;3.33;2.95;;;;;;;3.22;65.16;100132.84;3434326;81;21058;-81
2022/04/19 03:04:10;;;;;;;3.40;3.10;;;;;;;3.18;65.10;100130.95;3432081;82;21289;-81
2022/04/19 03:09:01;;;;;;;3.35;3.05;;;;;;;3.11;65.14;100133.69;3392405;82;21540;-81
2022/04/19 03:13:53;;;;;;;3.25;2.95;;;;;;;3.05;65.34;100128.34;3449504;81;21433;-81
2022/04/19 03:18:45;;;;;;;2.52;2.33;;;;;;;3.00;65.55;100133.28;3404094;81;21448;-80
2022/04/19 03:28:48;;;;;;;4.15;2.92;;;;;;;2.94;65.92;100137.34;3457808;82;21225;-81
2022/04/19 03:33:40;;;;;;;5.58;3.67;;;;;;;2.96;66.11;100136.56;3448117;82;22013;-81
2022/04/19 03:38:32;;;;;;;8.60;4.45;;;;;;;3.01;66.20;100132.48;3446475;82;20987;-81
2022/04/19 03:43:23;;;;;;;4.53;3.15;;;;;;;3.02;66.18;100130.78;3463895;81;20935;-81
2022/04/19 03:48:14;;;;;;;5.35;2.47;;;;;;;2.97;66.37;100138.72;3471001;82;20909;-81
2022/04/19 03:53:07;;;;;;;6.12;4.33;;;;;;;2.93;66.49;100145.42;3478427;82;21354;-81
2022/04/19 03:57:58;;;;;;;4.00;2.90;;;;;;;2.88;66.84;100155.95;3415070;82;21437;-81
2022/04/19 04:02:49;;;;;;;4.67;3.27;;;;;;;2.93;66.87;100160.83;3456501;82;20958;-82
2022/04/19 04:07:42;;;;;;;3.90;3.47;;;;;;;2.94;66.86;100158.75;3454138;82;20983;-81
2022/04/19 04:12:34;;;;;;;3.72;3.00;;;;;;;2.99;66.96;100161.51;3424699;82;21434;-81
2022/04/19 04:17:25;;;;;;;3.42;2.75;;;;;;;3.02;67.22;100163.78;3425447;82;22722;-82
2022/04/19 04:22:16;;;;;;;2.27;2.08;;;;;;;3.09;67.41;100171.71;3419671;82;20970;-81
2022/04/19 04:27:08;;;;;;;3.67;2.50;;;;;;;3.11;67.50;100171.36;3508250;79;20940;-81
2022/04/19 04:31:59;;;;;;;2.90;2.50;;;;;;;3.11;67.51;100178.64;3543680;79;20975;-81
2022/04/19 04:36:50;;;;;;;5.55;2.92;;;;;;;3.13;67.60;100189.88;3546450;79;20971;-81
2022/04/19 04:41:45;;;;;;;3.15;2.85;;;;;;;3.24;67.71;100189.01;3486682;78;21185;-81
2022/04/19 04:51:47;;;;;;;3.65;2.90;;;;;;;3.47;67.56;100191.55;3538938;79;20940;-81
2022/04/19 04:56:38;;;;;;;3.98;3.02;;;;;;;3.53;67.50;100202.08;3555192;79;20948;-81
2022/04/19 05:01:30;;;;;;;4.03;3.72;;;;;;;3.61;67.55;100203.21;3496067;79;20912;-81
2022/04/19 05:06:21;;;;;;;3.10;2.80;;;;;;;3.63;67.42;100205.42;3484046;79;21020;-81
2022/04/19 05:11:12;;;;;;;4.05;3.50;;;;;;;3.64;67.48;100202.05;3564235;79;21423;-81
2022/04/19 05:16:04;;;;;;;4.83;4.37;;;;;;;3.76;67.76;100208.92;3440009;80;20975;-82
2022/04/19 05:20:56;;;;;;;4.37;3.83;;;;;;;3.79;67.78;100207.76;3527077;79;20908;-81
2022/04/19 05:25:48;;;;;;;5.53;3.98;;;;;;;3.84;67.82;100209.61;3503166;79;20954;-81
2022/04/19 05:30:40;;;;;;;4.78;4.30;;;;;;;3.79;67.99;100216.76;3527225;79;20995;-81
2022/04/19 05:35:32;;;;;;;5.47;4.65;;;;;;;3.76;68.11;100229.50;3478318;79;21423;-81
2022/04/19 05:40:25;;;;;;;6.62;6.03;;;;;;;3.79;68.19;100229.62;3538834;79;20948;-81
2022/04/19 05:45:16;;;;;;;6.42;5.83;;;;;;;3.78;68.31;100231.70;3506359;79;21446;-80
2022/04/19 05:50:08;;;;;;;8.28;7.28;;;;;;;3.87;68.58;100231.59;3457048;82;20936;-80
2022/04/19 05:54:59;;;;;;;7.37;6.65;;;;;;;3.86;68.37;100236.26;3516655;79;22067;-80
2022/04/19 05:59:50;;;;;;;6.75;6.15;;;;;;;3.95;68.33;100243.02;3554693;78;21046;-80
2022/04/19 06:04:54;;;;;;;6.45;5.85;;;;;;;4.14;68.56;100242.85;3531485;77;22033;-80
2022/04/19 06:09:47;;;;;;;6.33;5.72;;;;;;;4.28;68.07;100252.77;3527323;79;20943;-80
2022/04/19 06:14:39;;;;;;;6.33;5.72;;;;;;;4.41;67.95;100262.66;3561119;79;21438;-80
2022/04/19 06:19:31;;;;;;;5.37;4.87;;;;;;;4.49;68.01;100265.09;3571647;79;21184;-80
2022/04/19 06:24:24;;;;;;;4.80;4.35;;;;;;;4.67;67.68;100270.38;3504274;80;20916;-80
2022/04/19 06:29:15;;;;;;;4.75;4.35;;;;;;;4.73;67.44;100260.30;3534396;79;20987;-80
2022/04/19 06:34:08;;;;;;;4.30;3.90;;;;;;;4.84;67.15;100263.23;3512669;79;20999;-80
2022/04/19 06:39:04;;;;;;;4.22;3.83;;;;;;;4.89;67.21;100272.85;3466298;79;20948;-80
2022/04/19 06:43:58;;;;;;;4.53;3.87;;;;;;;4.98;66.82;100276.56;3500208;79;21158;-80
2022/04/19 06:48:54;;;;;;;4.78;3.83;;;;;;;5.16;66.85;100284.87;3458186;80;21548;-80
2022/04/19 06:53:45;;;;;;;5.28;4.83;;;;;;;5.32;66.15;100287.11;3503616;79;21030;-80
2022/04/19 06:58:39;;;;;;;6.20;4.30;;;;;;;5.39;65.94;100295.05;3506397;79;21426;-80
2022/04/19 07:03:30;;;;;;;5.10;4.70;;;;;;;5.46;65.94;100293.98;3488893;80;21477;-80
2022/04/19 07:08:41;;;;;;;4.95;4.55;;;;;;;5.84;65.78;100301.13;3492510;79;21272;-79
2022/04/19 07:13:32;;;;;;;4.45;4.03;;;;;;;6.03;65.56;100311.20;3557553;78;20963;-80
2022/04/19 07:18:24;;;;;;;4.15;3.75;;;;;;;5.87;65.21;100308.55;3471380;79;21521;-79
2022/04/19 07:28:25;;;;;;;6.12;4.35;;;;;;;5.84;65.25;100321.77;3491818;79;20941;-81
2022/04/19 07:33:16;;;;;;;5.05;4.55;;;;;;;5.98;65.29;100325.67;3516152;79;21193;-79
2022/04/19 07:38:08;;;;;;;5.40;4.45;;;;;;;5.94;64.49;100335.41;3552845;79;20975;-78
2022/04/19 07:43:06;;;;;;;4.65;4.17;;;;;;;5.96;64.66;100333.78;3539452;79;20928;-78
2022/04/19 07:47:58;;;;;;;4.35;3.87;;;;;;;5.99;64.44;100337.75;3474150;79;21544;-80
2022/04/19 07:52:49;;;;;;;4.65;4.22;;;;;;;5.96;64.61;100335.08;3448283;79;21015;-80
2022/04/19 07:57:41;;;;;;;3.90;3.50;;;;;;;6.03;65.51;100346.04;3512581;79;21434;-80
2022/04/19 08:02:32;;;;;;;4.15;3.75;;;;;;;6.21;64.43;100351.28;3514735;77;20900;-81
2022/04/19 08:07:23;;;;;;;3.67;3.37;;;;;;;6.34;64.21;100354.66;3519125;79;21513;-81
2022/04/19 08:12:14;;;;;;;3.20;2.90;;;;;;;6.49;63.98;100362.84;3501112;79;23350;-77
2022/04/19 08:17:05;;;;;;;3.37;3.08;;;;;;;6.89;63.89;100359.59;3508798;79;20979;-78
2022/04/19 08:21:57;;;;;;;4.00;3.47;;;;;;;7.11;62.94;100364.46;3525539;78;22052;-78
2022/04/19 08:26:50;;;;;;;3.62;3.33;;;;;;;7.03;62.41;100371.16;3513274;78;21061;-86
2022/04/19 08:31:42;;;;;;;3.75;3.40;;;;;;;6.91;62.38;100374.72;3511694;79;21453;-84
2022/04/19 08:36:34;;;;;;;3.25;2.95;;;;;;;6.92;62.59;100379.94;3501792;79;21477;-85
2022/04/19 08:41:27;;;;;;;5.17;3.20;;;;;;;7.16;62.17;100374.50;3521069;79;21553;-84
2022/04/19 08:46:20;;;;;;;3.58;3.22;;;;;;;7.51;61.51;100374.91;3511129;79;40235;-81
2022/04/19 08:51:12;;;;;;;3.15;2.87;;;;;;;8.24;59.86;100384.75;3488854;78;20925;-82
2022/04/19 09:01:14;;;;;;;3.85;3.47;;;;;;;8.55;59.39;100382.41;3492721;78;22122;-83
2022/04/19 09:06:05;;;;;;;5.12;4.53;;;;;;;8.84;58.82;100377.34;3505497;80;21501;-83
2022/04/19 09:11:07;;;;;;;4.03;3.72;;;;;;;9.27;58.28;100369.02;3519665;79;21059;-83
2022/04/19 09:16:05;;;;;;;3.72;3.42;;;;;;;9.35;58.02;100374.79;3507606;79;20995;-82
2022/04/19 09:20:58;;;;;;;3.77;3.25;;;;;;;9.18;58.06;100379.25;3502029;79;21570;-79
2022/04/19 09:25:56;;;;;;;3.83;3.47;;;;;;;9.04;57.28;100376.41;3499581;79;20994;-75
2022/04/19 09:30:56;;;;;;;4.60;4.10;;;;;;;8.95;57.72;100382.30;3512289;78;20956;-79
2022/04/19 09:35:53;;;;;;;3.45;3.15;;;;;;;8.89;57.50;100384.75;3509052;79;21235;-77
2022/04/19 09:40:47;;;;;;;3.27;2.98;;;;;;;8.49;57.45;100394.36;3507457;79;20963;-81
2022/04/19 09:45:54;;;;;;;4.58;3.70;;;;;;;8.10;58.04;100398.72;3490379;79;21505;-81
2022/04/19 09:50:54;;;;;;;3.50;3.20;;;;;;;7.67;58.24;100402.89;3511803;79;21441;-81
2022/04/19 09:55:49;;;;;;;3.77;3.47;;;;;;;7.30;58.41;100421.80;3513790;79;20959;-82
2022/04/19 10:00:43;;;;;;;3.50;3.20;;;;;;;7.00;59.17;100421.48;3496940;79;20974;-81
2022/04/19 10:10:51;;;;;;;4.53;3.47;;;;;;;6.73;59.78;100434.11;3546158;78;20935;-84
2022/04/19 10:15:46;;;;;;;4.50;3.92;;;;;;;6.72;59.74;100428.89;3513059;78;20923;-81
2022/04/19 10:20:59;;;;;;;4.40;4.00;;;;;;;6.74;59.51;100434.55;3506897;78;21511;-79
2022/04/19 10:25:51;;;;;;;4.47;3.80;;;;;;;6.77;59.66;100431.19;3455236;78;21050;-80
2022/04/19 10:30:54;;;;;;;6.78;4.20;;;;;;;6.87;59.45;100436.66;3465284;78;21002;-82
2022/04/19 10:36:16;;;;;;;5.00;4.00;;;;;;;6.97;59.45;100438.19;3482314;77;21394;-80
2022/04/19 10:41:07;;;;;;;5.17;4.12;;;;;;;7.16;59.33;100440.44;3529142;78;20900;-82
2022/04/19 10:46:18;;;;;;;3.85;3.52;;;;;;;7.34;59.14;100433.57;3491845;79;20936;-81
2022/04/19 10:51:28;;;;;;;4.17;3.65;;;;;;;7.47;58.80;100432.16;3468056;77;20987;-82
2022/04/19 10:56:19;;;;;;;5.22;4.50;;;;;;;7.58;58.84;100429.45;3461608;79;20983;-76
2022/04/19 11:01:32;;;;;;;5.67;4.30;;;;;;;7.50;58.08;100433.55;3477536;79;20947;-81
2022/04/19 11:06:32;;;;;;;4.45;4.05;;;;;;;7.76;58.26;100429.02;3512889;79;20963;-83
2022/04/19 11:11:23;;;;;;;4.85;4.45;;;;;;;8.09;57.95;100431.05;3469155;79;21402;-80
2022/04/19 11:16:15;;;;;;;4.65;4.08;;;;;;;8.38;57.02;100426.06;3468164;79;22003;-78
2022/04/19 11:21:12;;;;;;;4.25;3.85;;;;;;;8.55;56.35;100421.72;3505500;79;21097;-78
2022/04/19 11:26:04;;;;;;;4.70;4.03;;;;;;;8.55;56.35;100421.72;3501058;79;20959;-80
2022/04/19 11:31:00;;;;;;;3.98;3.67;;;;;;;8.54;56.15;100429.88;3490824;79;21465;-81
2022/04/19 11:36:11;;;;;;;4.70;4.20;;;;;;;8.62;55.96;100422.69;3545430;79;21566;-82
2022/04/19 11:51:27;;;;;;;4.17;3.75;;;;;;;9.27;54.33;100413.13;3507223;80;20959;-78
2022/04/19 11:56:21;;;;;;;3.75;3.45;;;;;;;9.27;54.33;100413.13;3501017;79;20980;-81
2022/04/19 12:01:14;;;;;;;5.50;3.62;;;;;;;9.52;53.50;100404.02;3446398;79;21266;-78
2022/04/19 12:06:14;;;;;;;4.20;3.22;;;;;;;9.73;53.13;100406.09;3505266;79;22295;-84
2022/04/19 12:11:09;;;;;;;3.33;3.12;;;;;;;9.80;52.46;100410.53;3504181;79;20931;-82
2022/04/19 12:16:09;;;;;;;3.75;3.45;;;;;;;9.97;51.70;100415.09;3478349;77;20991;-81
2022/04/19 12:21:02;;;;;;;3.87;3.50;;;;;;;9.92;51.71;100405.49;3472072;79;20990;-81
2022/04/19 12:26:08;;;;;;;3.75;3.45;;;;;;;9.98;51.75;100408.63;3499395;79;20956;-80
2022/04/19 12:30:59;;;;;;;4.42;4.03;;;;;;;9.82;51.85;100402.34;3464767;79;21158;-81
2022/04/19 12:35:55;;;;;;;3.58;3.27;;;;;;;9.53;51.74;100398.86;3388019;80;21498;-82
2022/04/19 12:40:46;;;;;;;3.55;3.35;;;;;;;9.24;51.95;100404.84;3503009;79;21011;-76
2022/04/19 12:45:40;;;;;;;4.03;3.72;;;;;;;8.97;52.56;100401.34;3464941;78;20939;-82
2022/04/19 12:50:31;;;;;;;3.45;3.15;;;;;;;8.69;53.48;100406.02;3503209;79;21213;-83
2022/04/19 13:01:44;;;;;;;2.87;2.67;;;;;;;8.65;52.82;100393.81;3545752;79;20956;-84
2022/04/19 13:16:55;;;;;;;3.95;2.80;;;;;;;9.60;52.13;100391.16;3525541;77;20899;-81
2022/04/19 13:21:47;;;;;;;3.70;2.72;;;;;;;10.25;49.52;100391.25;3492197;79;22528;-78
2022/04/19 13:26:39;;;;;;;3.20;2.90;;;;;;;10.25;49.52;100391.25;3461747;80;21481;-78
2022/04/19 13:31:31;;;;;;;3.12;2.92;;;;;;;10.20;50.85;100390.30;3502300;79;20975;-78
2022/04/19 13:36:22;;;;;;;2.62;2.42;;;;;;;10.27;51.08;100386.94;3500572;79;21647;-77
2022/04/19 13:41:13;;;;;;;3.20;2.87;;;;;;;10.07;50.32;100388.41;3535837;79;20951;-77
2022/04/19 13:46:05;;;;;;;3.50;3.20;;;;;;;9.75;50.55;100392.70;3561625;79;22541;-79
2022/04/19 13:50:56;;;;;;;3.12;2.83;;;;;;;9.48;51.24;100380.19;3445162;80;20936;-76
2022/04/19 13:55:48;;;;;;;3.30;3.00;;;;;;;9.40;51.62;100389.12;3495959;78;20904;-75
2022/04/19 14:00:39;;;;;;;2.62;2.42;;;;;;;9.32;51.49;100395.92;3455009;80;21109;-75
2022/04/19 14:05:31;;;;;;;5.15;2.90;;;;;;;9.34;51.06;100394.22;3382687;80;20935;-78
2022/04/19 14:10:23;;;;;;;5.53;2.90;;;;;;;9.45;51.81;100369.31;3454128;80;22007;-78
2022/04/19 14:15:15;;;;;;;3.70;3.30;;;;;;;10.19;50.24;100371.66;3445276;80;20904;-79
2022/04/19 14:20:07;;;;;;;3.42;3.12;;;;;;;10.19;50.24;100371.66;3416970;80;22013;-79
2022/04/19 14:24:58;;;;;;;3.85;2.70;;;;;;;10.00;49.08;100382.25;3371367;80;21065;-79
2022/04/19 14:34:59;;;;;;;3.12;2.90;;;;;;;10.10;49.53;100378.04;3428393;80;21318;-78
2022/04/19 14:39:51;;;;;;;2.80;2.60;;;;;;;10.45;49.09;100380.27;3392358;82;20971;-78
2022/04/19 14:44:42;;;;;;;2.42;2.22;;;;;;;10.61;49.35;100386.08;3516717;79;22326;-78
2022/04/19 14:49:33;;;;;;;3.00;2.70;;;;;;;10.58;47.91;100383.88;3493155;79;21487;-78
2022/04/19 14:54:24;;;;;;;2.90;2.62;;;;;;;10.49;47.86;100385.50;3476782;79;21188;-76
2022/04/19 14:59:15;;;;;;;2.87;2.67;;;;;;;10.53;48.60;100378.61;3490169;79;21532;-74
2022/04/19 15:04:06;;;;;;;2.30;2.10;;;;;;;10.47;48.29;100381.15;3523358;78;21064;-75
2022/04/19 15:08:57;;;;;;;3.07;2.80;;;;;;;10.33;48.63;100381.41;3482398;77;20959;-76
2022/04/19 15:13:48;;;;;;;3.05;2.75;;;;;;;10.30;48.41;100379.19;3510346;80;21924;-76
2022/04/19 15:18:40;;;;;;;2.80;2.60;;;;;;;10.21;48.12;100373.88;3531266;79;20999;-80
2022/04/19 15:23:31;;;;;;;2.55;2.35;;;;;;;10.15;47.72;100382.87;3465257;79;22830;-80
2022/04/19 15:28:22;;;;;;;2.70;2.50;;;;;;;10.01;47.99;100387.01;3486250;79;20955;-77
2022/04/19 15:33:13;;;;;;;2.23;2.03;;;;;;;9.83;47.97;100384.59;3511023;79;20960;-78
2022/04/19 15:38:04;;;;;;;2.58;2.37;;;;;;;9.67;47.68;100381.32;3521064;79;21636;-77
2022/04/19 15:42:55;;;;;;;2.37;1.80;;;;;;;9.47;48.00;100383.17;3480718;79;21589;-77
2022/04/19 15:47:46;;;;;;;2.50;2.30;;;;;;;9.38;48.24;100372.66;3463593;79;20978;-78
2022/04/19 15:52:38;;;;;;;2.70;2.50;;;;;;;9.33;48.25;100374.30;3504652;79;22194;-77
2022/04/19 15:57:29;;;;;;;2.83;2.60;;;;;;;9.23;48.18;100372.39;3496789;79;20975;-78
2022/04/19 16:02:21;;;;;;;3.70;2.95;;;;;;;9.16;48.89;100371.00;3476095;79;20947;-78
2022/04/19 16:07:13;;;;;;;3.12;2.77;;;;;;;9.12;48.32;100367.91;3494556;79;20951;-77
2022/04/19 16:12:05;;;;;;;2.77;2.15;;;;;;;9.05;49.23;100363.87;3526584;80;21266;-82
2022/04/19 16:27:16;;;;;;;5.53;2.47;;;;;;;8.71;50.15;100353.78;3525619;78;21003;-77
2022/04/19 16:32:08;;;;;;;3.15;2.37;;;;;;;8.57;51.02;100352.65;3512338;79;21030;-75
2022/04/19 16:36:59;;;;;;;5.85;2.30;;;;;;;8.46;51.70;100356.72;3458602;78;21205;-80
2022/04/19 16:41:50;;;;;;;2.42;1.75;;;;;;;8.26;52.51;100354.57;3473776;79;20896;-76
2022/04/19 16:46:41;;;;;;;1.90;1.70;;;;;;;8.07;53.58;100358.51;3509268;80;21617;-78
2022/04/19 16:51:32;;;;;;;1.85;1.65;;;;;;;7.85;54.02;100355.85;3501182;79;20986;-76
2022/04/19 16:56:23;;;;;;;3.60;2.20;;;;;;;7.64;54.70;100359.72;3477494;79;21078;-77
2022/04/19 17:01:14;;;;;;;3.90;2.62;;;;;;;7.47;55.17;100344.21;3467970;79;21574;-79
2022/04/19 17:06:06;;;;;;;3.30;2.50;;;;;;;7.25;55.20;100349.30;3501892;78;20978;-81
2022/04/19 17:10:57;;;;;;;2.85;2.52;;;;;;;7.09;55.85;100354.94;3551945;79;20998;-80
2022/04/19 17:15:49;;;;;;;6.65;2.55;;;;;;;6.98;56.29;100357.24;3524193;79;20967;-77
2022/04/19 17:20:40;;;;;;;3.25;2.47;;;;;;;6.80;56.08;100355.92;3538060;78;21537;-77
2022/04/19 17:25:31;;;;;;;3.92;3.52;;;;;;;6.59;56.43;100357.93;3478507;79;21095;-78
2022/04/19 17:30:22;;;;;;;2.90;2.25;;;;;;;6.46;57.11;100360.17;3505333;79;20948;-78
2022/04/19 17:35:13;;;;;;;2.95;2.33;;;;;;;6.34;57.80;100363.70;3530826;78;21179;-77
2022/04/19 17:40:06;;;;;;;2.52;1.95;;;;;;;6.20;57.42;100369.75;3525032;79;20948;-77
2022/04/19 17:44:58;;;;;;;2.65;2.05;;;;;;;6.10;57.60;100367.33;3490591;79;20966;-77
2022/04/19 18:00:08;;;;;;;4.65;2.95;;;;;;;5.80;58.94;100375.41;3511486;78;21388;-78
2022/04/19 18:04:59;;;;;;;5.62;3.83;;;;;;;5.66;59.44;100378.84;3508734;77;20908;-79
2022/04/19 18:09:50;;;;;;;6.55;4.62;;;;;;;5.66;59.99;100387.45;3503435;79;22322;-79
2022/04/19 18:14:43;;;;;;;11.63;6.35;;;;;;;5.75;60.38;100390.73;3450642;79;21833;-79
2022/04/19 18:19:34;;;;;;;12.70;7.75;;;;;;;5.82;60.43;100392.67;3508480;79;21634;-78
2022/04/19 18:29:37;;;;;;;12.05;6.00;;;;;;;5.89;60.87;100386.01;3417265;82;21029;-78
2022/04/19 18:34:33;;;;;;;10.88;9.03;;;;;;;5.85;61.46;100384.17;3378795;81;21038;-75
2022/04/19 18:39:23;;;;;;;17.70;11.20;;;;;;;5.86;61.80;100381.61;3433883;81;21334;-77
2022/04/19 18:44:14;;;;;;;14.70;10.53;;;;;;;5.90;61.79;100386.45;3423663;81;20940;-77
2022/04/19 18:49:05;;;;;;;18.02;11.53;;;;;;;5.91;61.89;100389.50;3395310;80;21364;-77
2022/04/19 18:53:56;;;;;;;13.13;9.25;;;;;;;5.86;61.87;100392.35;3366384;81;20943;-77
2022/04/19 18:58:48;;;;;;;15.38;10.82;;;;;;;5.86;62.09;100391.06;3491518;79;20955;-77
2022/04/19 19:03:39;;;;;;;14.50;10.10;;;;;;;5.84;62.32;100382.41;3499884;79;21129;-78
2022/04/19 19:08:30;;;;;;;19.77;13.85;;;;;;;5.82;62.54;100384.06;3484189;78;20971;-78
2022/04/19 19:13:21;;;;;;;18.62;12.45;;;;;;;5.82;62.65;100384.06;3470409;79;21441;-78
2022/04/19 19:18:12;;;;;;;25.00;14.25;;;;;;;5.84;62.65;100389.72;3510108;78;21635;-78
2022/04/19 19:23:04;;;;;;;41.85;24.27;;;;;;;5.85;62.91;100386.75;3471665;79;21007;-78
2022/04/19 19:27:56;;;;;;;25.40;16.52;;;;;;;5.89;63.16;100398.91;3493686;79;22383;-78
2022/04/19 19:32:47;;;;;;;14.87;10.28;;;;;;;5.91;63.13;100403.70;3526842;79;20983;-78
2022/04/19 19:37:38;;;;;;;13.28;9.35;;;;;;;5.94;62.60;100397.34;3463975;79;21003;-78
2022/04/19 19:42:29;;;;;;;15.55;11.55;;;;;;;5.94;62.39;100389.61;3471834;77;21841;-78
2022/04/19 19:47:21;;;;;;;14.15;10.48;;;;;;;5.95;62.51;100392.63;3518325;78;21128;-78
2022/04/19 19:52:12;;;;;;;15.40;9.58;;;;;;;5.93;62.70;100383.97;3429068;77;21030;-78
2022/04/19 19:57:04;;;;;;;16.45;11.18;;;;;;;5.90;63.16;100387.73;3439339;79;21453;-78
2022/04/19 20:01:55;;;;;;;13.83;9.88;;;;;;;5.91;62.99;100380.47;3492296;79;20975;-78
2022/04/19 20:06:46;;;;;;;17.05;11.80;;;;;;;5.93;63.02;100380.09;3548023;78;21553;-78
2022/04/19 20:11:37;;;;;;;14.95;11.22;;;;;;;5.97;63.32;100381.97;3429315;79;20943;-78
2022/04/19 20:16:28;;;;;;;18.02;11.80;;;;;;;6.02;63.37;100389.86;3467067;78;20994;-78
2022/04/19 20:21:20;;;;;;;14.45;10.85;;;;;;;6.00;63.23;100381.20;3479454;79;20951;-78
2022/04/19 20:26:11;;;;;;;9.65;8.60;;;;;;;5.96;63.52;100377.66;3520256;79;21034;-79
2022/04/19 20:31:02;;;;;;;11.90;8.78;;;;;;;5.91;64.01;100366.28;3546915;79;20932;-78
2022/04/19 20:35:54;;;;;;;13.40;9.30;;;;;;;5.84;64.13;100357.89;3521906;79;22245;-78
2022/04/19 20:40:45;;;;;;;14.03;9.80;;;;;;;5.78;64.16;100368.01;3469916;78;22607;-78
2022/04/19 20:45:36;;;;;;;14.73;10.72;;;;;;;5.76;64.60;100366.70;3441553;79;21010;-78
2022/04/19 20:50:27;;;;;;;14.43;10.35;;;;;;;5.85;64.86;100355.79;3517508;79;20946;-78
2022/04/19 20:55:23;;;;;;;12.98;9.75;;;;;;;5.90;64.71;100346.45;3514903;79;20983;-78
2022/04/19 21:00:19;;;;;;;11.15;8.45;;;;;;;5.86;64.62;100340.75;3499537;77;20923;-78
2022/04/19 21:05:10;;;;;;;9.83;7.23;;;;;;;5.83;64.50;100331.62;3499252;79;21418;-79
2022/04/19 21:10:02;;;;;;;12.40;8.08;;;;;;;5.80;64.91;100331.55;3505374;79;20950;-78
2022/04/19 21:14:54;;;;;;;11.10;8.60;;;;;;;5.76;65.10;100324.52;3444708;79;21000;-77
2022/04/19 21:19:45;;;;;;;8.68;6.72;;;;;;;5.78;65.21;100333.18;3491062;79;20940;-77
2022/04/19 21:24:36;;;;;;;9.63;8.50;;;;;;;5.83;65.29;100334.20;3499002;79;20947;-77
2022/04/19 21:29:29;;;;;;;14.33;8.03;;;;;;;5.88;65.34;100337.80;3526281;79;21027;-77
2022/04/19 21:34:21;;;;;;;9.13;6.75;;;;;;;5.91;65.58;100336.19;3491919;79;21011;-77
2022/04/19 21:39:17;;;;;;;8.43;6.75;;;;;;;5.92;65.63;100335.79;3470674;77;21346;-77
2022/04/19 21:44:08;;;;;;;9.20;5.47;;;;;;;5.89;65.80;100335.27;3524107;79;21442;-78
2022/04/19 21:48:59;;;;;;;12.13;6.08;;;;;;;5.88;65.74;100340.38;3500533;78;22154;-77
2022/04/19 21:53:50;;;;;;;6.60;5.90;;;;;;;5.92;65.82;100331.92;3544638;79;21081;-77
2022/04/19 21:58:41;;;;;;;6.17;5.55;;;;;;;6.02;65.72;100317.17;3523615;79;21030;-77
2022/04/19 22:03:33;;;;;;;7.60;5.17;;;;;;;6.02;65.72;100317.17;3527602;79;21622;-77
2022/04/19 22:08:25;;;;;;;6.20;5.00;;;;;;;5.99;65.92;100300.33;3496220;79;21042;-77
2022/04/19 22:13:17;;;;;;;5.95;4.10;;;;;;;5.98;66.00;100288.25;3476672;79;21042;-77
2022/04/19 22:18:08;;;;;;;6.12;4.60;;;;;;;5.96;66.01;100286.05;3438070;79;21115;-77
2022/04/19 22:22:59;;;;;;;6.42;3.90;;;;;;;5.91;65.97;100276.83;3473061;79;21465;-77
2022/04/19 22:27:50;;;;;;;6.25;4.62;;;;;;;5.92;66.15;100264.83;3521780;79;20907;-77
2022/04/19 22:32:41;;;;;;;6.45;3.85;;;;;;;5.96;66.14;100255.50;3520313;79;20905;-77
2022/04/19 22:37:33;;;;;;;6.15;3.92;;;;;;;5.99;66.16;100253.88;3475670;79;21642;-77
2022/04/19 22:42:25;;;;;;;4.47;3.27;;;;;;;5.97;66.05;100262.39;3517415;79;22089;-77
2022/04/19 22:47:16;;;;;;;7.47;4.33;;;;;;;5.94;66.03;100251.55;3513304;77;21019;-77
2022/04/19 22:52:08;;;;;;;3.90;3.42;;;;;;;5.87;66.23;100243.18;3426776;79;20928;-77
2022/04/19 22:56:58;;;;;;;4.15;3.35;;;;;;;5.79;66.25;100234.33;3506592;79;21454;-78
2022/04/19 23:01:50;;;;;;;6.33;3.80;;;;;;;5.80;66.39;100230.94;3511749;79;21081;-78
2022/04/19 23:06:41;;;;;;;7.50;4.00;;;;;;;5.82;66.71;100234.00;3531907;77;21777;-78
2022/04/19 23:11:32;;;;;;;4.45;3.62;;;;;;;5.85;66.82;100225.07;3540054;79;20955;-79
2022/04/19 23:16:23;;;;;;;4.10;3.58;;;;;;;5.88;66.81;100225.55;3537951;79;21093;-78
2022/04/19 23:21:15;;;;;;;3.52;3.22;;;;;;;5.90;66.93;100227.76;3519201;78;21706;-78
2022/04/19 23:31:16;;;;;;;4.40;3.42;;;;;;;5.84;66.88;100217.28;3535220;78;22048;-78
2022/04/19 23:36:07;;;;;;;4.08;3.60;;;;;;;5.90;67.05;100213.17;3452489;79;20987;-78
2022/04/19 23:40:58;;;;;;;4.22;3.37;;;;;;;5.96;67.03;100212.50;3459605;78;20924;-78
2022/04/19 23:45:51;;;;;;;5.85;3.70;;;;;;;6.00;67.19;100211.73;3445585;80;20999;-78
2022/04/19 23:50:45;;;;;;;4.58;3.22;;;;;;;6.00;67.17;100218.62;3529867;79;20960;-78
2022/04/19 23:55:36;;;;;;;4.22;3.50;;;;;;;5.97;67.25;100219.81;3507114;79;20961;-78
